sensor_id;sensor_type;location;lat;lon;timestamp;P1;durP1;ratioP1;P2;durP2;ratioP2
151;SDS011;68;48.792;9.164;2022-08-27T00:01:54;14.83;;;8.00;;
151;SDS011;68;48.792;9.164;2022-08-27T00:04:21;15.63;;;9.50;;
151;SDS011;68;48.792;9.164;2022-08-27T00:06:48;17.33;;;8.60;;
151;SDS011;68;48.792;9.164;2022-08-27T00:09:15;16.60;;;8.80;;
151;SDS011;68;48.792;9.164;2022-08-27T00:11:43;16.70;;;8.13;;
151;SDS011;68;48.792;9.164;2022-08-27T00:14:10;17.40;;;9.03;;
151;SDS011;68;48.792;9.164;2022-08-27T00:16:37;12.77;;;7.70;;
151;SDS011;68;48.792;9.164;2022-08-27T00:19:04;16.67;;;9.17;;
151;SDS011;68;48.792;9.164;2022-08-27T00:21:31;16.00;;;8.70;;
151;SDS011;68;48.792;9.164;2022-08-27T00:23:58;16.00;;;9.13;;
151;SDS011;68;48.792;9.164;2022-08-27T00:26:25;22.50;;;9.07;;
151;SDS011;68;48.792;9.164;2022-08-27T00:28:54;13.53;;;8.20;;
151;SDS011;68;48.792;9.164;2022-08-27T00:31:20;16.80;;;8.10;;
151;SDS011;68;48.792;9.164;2022-08-27T00:33:47;14.00;;;8.50;;
151;SDS011;68;48.792;9.164;2022-08-27T00:36:14;18.50;;;9.47;;
151;SDS011;68;48.792;9.164;2022-08-27T00:38:41;16.23;;;7.90;;
151;SDS011;68;48.792;9.164;2022-08-27T00:41:09;11.80;;;6.60;;
151;SDS011;68;48.792;9.164;2022-08-27T00:43:44;17.33;;;9.20;;
151;SDS011;68;48.792;9.164;2022-08-27T00:46:18;15.20;;;8.67;;
151;SDS011;68;48.792;9.164;2022-08-27T00:48:49;15.10;;;7.90;;
151;SDS011;68;48.792;9.164;2022-08-27T00:51:18;16.13;;;7.93;;
151;SDS011;68;48.792;9.164;2022-08-27T00:53:46;13.60;;;7.40;;
151;SDS011;68;48.792;9.164;2022-08-27T00:56:15;18.60;;;7.67;;
151;SDS011;68;48.792;9.164;2022-08-27T00:58:46;15.33;;;7.90;;
151;SDS011;68;48.792;9.164;2022-08-27T01:01:18;15.73;;;8.77;;
151;SDS011;68;48.792;9.164;2022-08-27T01:03:49;17.57;;;8.70;;
151;SDS011;68;48.792;9.164;2022-08-27T01:06:19;13.87;;;7.80;;
151;SDS011;68;48.792;9.164;2022-08-27T01:08:49;16.17;;;7.63;;
151;SDS011;68;48.792;9.164;2022-08-27T01:11:18;17.37;;;8.83;;
151;SDS011;68;48.792;9.164;2022-08-27T01:13:46;13.40;;;7.13;;
151;SDS011;68;48.792;9.164;2022-08-27T01:16:14;12.50;;;6.37;;
151;SDS011;68;48.792;9.164;2022-08-27T01:18:47;17.03;;;7.87;;
151;SDS011;68;48.792;9.164;2022-08-27T01:21:17;15.90;;;7.90;;
151;SDS011;68;48.792;9.164;2022-08-27T01:23:50;11.50;;;7.53;;
151;SDS011;68;48.792;9.164;2022-08-27T01:26:23;14.27;;;6.97;;
151;SDS011;68;48.792;9.164;2022-08-27T01:28:50;14.10;;;7.27;;
151;SDS011;68;48.792;9.164;2022-08-27T01:31:18;21.17;;;8.53;;
151;SDS011;68;48.792;9.164;2022-08-27T01:33:52;14.97;;;7.70;;
151;SDS011;68;48.792;9.164;2022-08-27T01:36:20;12.03;;;7.53;;
151;SDS011;68;48.792;9.164;2022-08-27T01:38:47;15.80;;;8.20;;
151;SDS011;68;48.792;9.164;2022-08-27T01:41:14;14.07;;;7.33;;
151;SDS011;68;48.792;9.164;2022-08-27T01:43:43;14.37;;;7.40;;
151;SDS011;68;48.792;9.164;2022-08-27T01:46:10;15.70;;;7.57;;
151;SDS011;68;48.792;9.164;2022-08-27T01:48:37;13.47;;;7.10;;
151;SDS011;68;48.792;9.164;2022-08-27T01:51:04;16.37;;;9.00;;
151;SDS011;68;48.792;9.164;2022-08-27T01:53:31;12.33;;;7.40;;
151;SDS011;68;48.792;9.164;2022-08-27T01:55:58;15.80;;;7.60;;
151;SDS011;68;48.792;9.164;2022-08-27T01:58:26;14.77;;;7.97;;
151;SDS011;68;48.792;9.164;2022-08-27T02:00:57;12.50;;;7.87;;
151;SDS011;68;48.792;9.164;2022-08-27T02:03:27;15.73;;;8.70;;
151;SDS011;68;48.792;9.164;2022-08-27T02:05:54;12.57;;;6.87;;
151;SDS011;68;48.792;9.164;2022-08-27T02:08:21;13.27;;;7.60;;
151;SDS011;68;48.792;9.164;2022-08-27T02:10:48;14.63;;;8.10;;
151;SDS011;68;48.792;9.164;2022-08-27T02:13:16;12.83;;;7.50;;
151;SDS011;68;48.792;9.164;2022-08-27T02:15:43;19.67;;;7.93;;
151;SDS011;68;48.792;9.164;2022-08-27T02:18:11;12.50;;;7.57;;
151;SDS011;68;48.792;9.164;2022-08-27T02:20:39;17.13;;;8.53;;
151;SDS011;68;48.792;9.164;2022-08-27T02:23:06;15.07;;;7.70;;
151;SDS011;68;48.792;9.164;2022-08-27T02:25:33;15.80;;;7.73;;
151;SDS011;68;48.792;9.164;2022-08-27T02:27:59;14.50;;;7.97;;
151;SDS011;68;48.792;9.164;2022-08-27T02:30:27;19.23;;;8.50;;
151;SDS011;68;48.792;9.164;2022-08-27T02:32:56;14.53;;;8.33;;
151;SDS011;68;48.792;9.164;2022-08-27T02:35:26;15.27;;;8.63;;
151;SDS011;68;48.792;9.164;2022-08-27T02:37:53;16.30;;;8.57;;
151;SDS011;68;48.792;9.164;2022-08-27T02:40:21;16.67;;;9.27;;
151;SDS011;68;48.792;9.164;2022-08-27T02:42:49;15.10;;;8.20;;
151;SDS011;68;48.792;9.164;2022-08-27T02:45:16;14.83;;;8.53;;
151;SDS011;68;48.792;9.164;2022-08-27T02:47:44;15.07;;;8.73;;
151;SDS011;68;48.792;9.164;2022-08-27T02:50:12;24.63;;;8.90;;
151;SDS011;68;48.792;9.164;2022-08-27T02:52:44;14.00;;;8.03;;
151;SDS011;68;48.792;9.164;2022-08-27T02:55:12;18.83;;;7.93;;
151;SDS011;68;48.792;9.164;2022-08-27T02:57:40;16.30;;;8.37;;
151;SDS011;68;48.792;9.164;2022-08-27T03:00:08;13.90;;;8.33;;
151;SDS011;68;48.792;9.164;2022-08-27T03:02:38;17.30;;;8.20;;
151;SDS011;68;48.792;9.164;2022-08-27T03:05:06;18.60;;;8.50;;
151;SDS011;68;48.792;9.164;2022-08-27T03:07:33;14.43;;;7.63;;
151;SDS011;68;48.792;9.164;2022-08-27T03:10:03;15.23;;;8.20;;
151;SDS011;68;48.792;9.164;2022-08-27T03:12:31;15.40;;;8.50;;
151;SDS011;68;48.792;9.164;2022-08-27T03:14:58;20.60;;;9.27;;
151;SDS011;68;48.792;9.164;2022-08-27T03:17:25;16.10;;;8.27;;
151;SDS011;68;48.792;9.164;2022-08-27T03:20:09;12.60;;;7.40;;
151;SDS011;68;48.792;9.164;2022-08-27T03:22:36;16.03;;;8.10;;
151;SDS011;68;48.792;9.164;2022-08-27T03:25:06;15.77;;;8.10;;
151;SDS011;68;48.792;9.164;2022-08-27T03:27:33;15.90;;;7.37;;
151;SDS011;68;48.792;9.164;2022-08-27T03:30:01;14.13;;;7.57;;
151;SDS011;68;48.792;9.164;2022-08-27T03:32:28;15.03;;;8.40;;
151;SDS011;68;48.792;9.164;2022-08-27T03:34:55;16.43;;;8.63;;
151;SDS011;68;48.792;9.164;2022-08-27T03:37:23;10.87;;;6.63;;
151;SDS011;68;48.792;9.164;2022-08-27T03:39:50;13.37;;;7.63;;
151;SDS011;68;48.792;9.164;2022-08-27T03:42:18;14.37;;;7.37;;
151;SDS011;68;48.792;9.164;2022-08-27T03:44:45;12.63;;;6.80;;
151;SDS011;68;48.792;9.164;2022-08-27T03:47:13;9.83;;;7.00;;
151;SDS011;68;48.792;9.164;2022-08-27T03:49:40;15.10;;;6.87;;
151;SDS011;68;48.792;9.164;2022-08-27T03:52:07;17.83;;;7.57;;
151;SDS011;68;48.792;9.164;2022-08-27T03:54:34;11.80;;;7.07;;
151;SDS011;68;48.792;9.164;2022-08-27T03:57:02;11.80;;;6.10;;
151;SDS011;68;48.792;9.164;2022-08-27T03:59:30;14.33;;;6.60;;
151;SDS011;68;48.792;9.164;2022-08-27T04:01:57;10.53;;;6.40;;
151;SDS011;68;48.792;9.164;2022-08-27T04:04:24;14.90;;;7.57;;
151;SDS011;68;48.792;9.164;2022-08-27T04:06:51;13.50;;;7.10;;
151;SDS011;68;48.792;9.164;2022-08-27T04:09:19;12.60;;;7.60;;
151;SDS011;68;48.792;9.164;2022-08-27T04:11:46;13.60;;;7.80;;
151;SDS011;68;48.792;9.164;2022-08-27T04:14:12;15.17;;;8.10;;
151;SDS011;68;48.792;9.164;2022-08-27T04:16:41;18.07;;;8.33;;
151;SDS011;68;48.792;9.164;2022-08-27T04:19:08;20.60;;;10.93;;
151;SDS011;68;48.792;9.164;2022-08-27T04:21:37;19.43;;;10.00;;
151;SDS011;68;48.792;9.164;2022-08-27T04:24:04;23.83;;;9.70;;
151;SDS011;68;48.792;9.164;2022-08-27T04:26:33;22.03;;;11.07;;
151;SDS011;68;48.792;9.164;2022-08-27T04:28:59;22.27;;;10.43;;
151;SDS011;68;48.792;9.164;2022-08-27T04:31:26;19.83;;;9.40;;
151;SDS011;68;48.792;9.164;2022-08-27T04:33:54;25.23;;;10.63;;
151;SDS011;68;48.792;9.164;2022-08-27T04:36:21;20.23;;;10.20;;
151;SDS011;68;48.792;9.164;2022-08-27T04:38:48;20.37;;;10.97;;
151;SDS011;68;48.792;9.164;2022-08-27T04:41:15;24.27;;;9.90;;
151;SDS011;68;48.792;9.164;2022-08-27T04:43:45;24.50;;;10.83;;
151;SDS011;68;48.792;9.164;2022-08-27T04:46:12;21.00;;;10.07;;
151;SDS011;68;48.792;9.164;2022-08-27T04:48:39;18.03;;;10.10;;
151;SDS011;68;48.792;9.164;2022-08-27T04:51:12;28.20;;;11.97;;
151;SDS011;68;48.792;9.164;2022-08-27T04:53:38;30.07;;;11.50;;
151;SDS011;68;48.792;9.164;2022-08-27T04:56:05;21.13;;;9.80;;
151;SDS011;68;48.792;9.164;2022-08-27T04:58:32;23.47;;;11.30;;
151;SDS011;68;48.792;9.164;2022-08-27T05:00:59;20.73;;;10.50;;
151;SDS011;68;48.792;9.164;2022-08-27T05:03:26;24.07;;;10.73;;
151;SDS011;68;48.792;9.164;2022-08-27T05:05:57;26.07;;;12.17;;
151;SDS011;68;48.792;9.164;2022-08-27T05:08:27;25.47;;;12.57;;
151;SDS011;68;48.792;9.164;2022-08-27T05:10:55;24.37;;;10.80;;
151;SDS011;68;48.792;9.164;2022-08-27T05:13:22;22.80;;;10.10;;
151;SDS011;68;48.792;9.164;2022-08-27T05:15:49;20.33;;;9.77;;
151;SDS011;68;48.792;9.164;2022-08-27T05:18:23;25.43;;;9.93;;
151;SDS011;68;48.792;9.164;2022-08-27T05:20:50;23.73;;;10.87;;
151;SDS011;68;48.792;9.164;2022-08-27T05:23:19;18.20;;;10.80;;
151;SDS011;68;48.792;9.164;2022-08-27T05:25:48;19.87;;;10.80;;
151;SDS011;68;48.792;9.164;2022-08-27T05:28:16;23.70;;;9.97;;
151;SDS011;68;48.792;9.164;2022-08-27T05:30:45;26.60;;;10.70;;
151;SDS011;68;48.792;9.164;2022-08-27T05:33:15;20.13;;;9.80;;
151;SDS011;68;48.792;9.164;2022-08-27T05:35:43;17.27;;;9.70;;
151;SDS011;68;48.792;9.164;2022-08-27T05:38:11;23.27;;;11.43;;
151;SDS011;68;48.792;9.164;2022-08-27T05:40:39;19.83;;;10.37;;
151;SDS011;68;48.792;9.164;2022-08-27T05:43:09;21.40;;;9.73;;
151;SDS011;68;48.792;9.164;2022-08-27T05:45:39;27.73;;;12.30;;
151;SDS011;68;48.792;9.164;2022-08-27T05:48:06;22.93;;;10.17;;
151;SDS011;68;48.792;9.164;2022-08-27T05:50:35;30.27;;;11.90;;
151;SDS011;68;48.792;9.164;2022-08-27T05:53:02;19.83;;;10.77;;
151;SDS011;68;48.792;9.164;2022-08-27T05:55:29;20.93;;;10.57;;
151;SDS011;68;48.792;9.164;2022-08-27T05:58:01;25.30;;;10.60;;
151;SDS011;68;48.792;9.164;2022-08-27T06:00:31;24.23;;;10.30;;
151;SDS011;68;48.792;9.164;2022-08-27T06:03:16;19.63;;;10.43;;
151;SDS011;68;48.792;9.164;2022-08-27T06:05:43;23.53;;;11.20;;
151;SDS011;68;48.792;9.164;2022-08-27T06:08:09;21.30;;;10.23;;
151;SDS011;68;48.792;9.164;2022-08-27T06:10:38;22.93;;;10.90;;
151;SDS011;68;48.792;9.164;2022-08-27T06:13:07;26.20;;;10.87;;
151;SDS011;68;48.792;9.164;2022-08-27T06:15:35;21.20;;;11.63;;
151;SDS011;68;48.792;9.164;2022-08-27T06:18:02;21.83;;;11.00;;
151;SDS011;68;48.792;9.164;2022-08-27T06:20:29;20.87;;;11.33;;
151;SDS011;68;48.792;9.164;2022-08-27T06:22:56;28.23;;;10.97;;
151;SDS011;68;48.792;9.164;2022-08-27T06:25:23;26.93;;;10.87;;
151;SDS011;68;48.792;9.164;2022-08-27T06:27:50;24.90;;;11.33;;
151;SDS011;68;48.792;9.164;2022-08-27T06:30:17;20.43;;;10.73;;
151;SDS011;68;48.792;9.164;2022-08-27T06:32:45;23.90;;;11.50;;
151;SDS011;68;48.792;9.164;2022-08-27T06:35:12;26.40;;;11.50;;
151;SDS011;68;48.792;9.164;2022-08-27T06:37:39;18.87;;;10.63;;
151;SDS011;68;48.792;9.164;2022-08-27T06:40:06;27.67;;;10.47;;
151;SDS011;68;48.792;9.164;2022-08-27T06:42:34;22.50;;;11.33;;
151;SDS011;68;48.792;9.164;2022-08-27T06:45:01;23.00;;;10.40;;
151;SDS011;68;48.792;9.164;2022-08-27T06:47:30;19.17;;;10.37;;
151;SDS011;68;48.792;9.164;2022-08-27T06:49:58;23.50;;;11.90;;
151;SDS011;68;48.792;9.164;2022-08-27T06:52:25;23.80;;;9.53;;
151;SDS011;68;48.792;9.164;2022-08-27T06:54:52;22.40;;;9.43;;
151;SDS011;68;48.792;9.164;2022-08-27T06:57:19;24.53;;;9.60;;
151;SDS011;68;48.792;9.164;2022-08-27T06:59:48;18.80;;;9.67;;
151;SDS011;68;48.792;9.164;2022-08-27T07:05:19;23.77;;;9.67;;
151;SDS011;68;48.792;9.164;2022-08-27T07:07:46;18.57;;;9.77;;
151;SDS011;68;48.792;9.164;2022-08-27T07:10:13;21.43;;;9.90;;
151;SDS011;68;48.792;9.164;2022-08-27T07:12:40;17.33;;;9.27;;
151;SDS011;68;48.792;9.164;2022-08-27T07:15:07;17.03;;;10.13;;
151;SDS011;68;48.792;9.164;2022-08-27T07:17:35;24.23;;;10.20;;
151;SDS011;68;48.792;9.164;2022-08-27T07:20:02;19.87;;;9.70;;
151;SDS011;68;48.792;9.164;2022-08-27T07:22:31;20.07;;;9.47;;
151;SDS011;68;48.792;9.164;2022-08-27T07:24:58;19.73;;;9.97;;
151;SDS011;68;48.792;9.164;2022-08-27T07:27:25;21.60;;;9.97;;
151;SDS011;68;48.792;9.164;2022-08-27T07:29:52;20.13;;;9.07;;
151;SDS011;68;48.792;9.164;2022-08-27T07:32:19;20.00;;;9.27;;
151;SDS011;68;48.792;9.164;2022-08-27T07:34:46;19.27;;;9.97;;
151;SDS011;68;48.792;9.164;2022-08-27T07:37:13;20.27;;;9.80;;
151;SDS011;68;48.792;9.164;2022-08-27T07:39:41;21.20;;;9.00;;
151;SDS011;68;48.792;9.164;2022-08-27T07:42:08;22.93;;;9.17;;
151;SDS011;68;48.792;9.164;2022-08-27T07:44:52;23.97;;;9.60;;
151;SDS011;68;48.792;9.164;2022-08-27T07:47:19;18.90;;;9.40;;
151;SDS011;68;48.792;9.164;2022-08-27T07:49:46;20.70;;;10.53;;
151;SDS011;68;48.792;9.164;2022-08-27T07:52:12;20.63;;;9.53;;
151;SDS011;68;48.792;9.164;2022-08-27T07:54:41;28.60;;;9.40;;
151;SDS011;68;48.792;9.164;2022-08-27T07:57:08;14.97;;;9.03;;
151;SDS011;68;48.792;9.164;2022-08-27T07:59:35;16.40;;;9.20;;
151;SDS011;68;48.792;9.164;2022-08-27T08:02:03;17.70;;;9.80;;
151;SDS011;68;48.792;9.164;2022-08-27T08:04:30;18.07;;;8.37;;
151;SDS011;68;48.792;9.164;2022-08-27T08:06:56;18.00;;;9.80;;
151;SDS011;68;48.792;9.164;2022-08-27T08:09:23;22.97;;;11.03;;
151;SDS011;68;48.792;9.164;2022-08-27T08:11:51;18.40;;;9.73;;
151;SDS011;68;48.792;9.164;2022-08-27T08:14:19;18.03;;;9.63;;
151;SDS011;68;48.792;9.164;2022-08-27T08:16:48;16.50;;;8.90;;
151;SDS011;68;48.792;9.164;2022-08-27T08:19:15;18.37;;;9.90;;
151;SDS011;68;48.792;9.164;2022-08-27T08:21:42;18.17;;;9.63;;
151;SDS011;68;48.792;9.164;2022-08-27T08:24:09;17.90;;;9.43;;
151;SDS011;68;48.792;9.164;2022-08-27T08:26:36;17.00;;;9.20;;
151;SDS011;68;48.792;9.164;2022-08-27T08:29:07;15.73;;;8.97;;
151;SDS011;68;48.792;9.164;2022-08-27T08:31:33;15.90;;;8.87;;
151;SDS011;68;48.792;9.164;2022-08-27T08:34:02;19.90;;;9.97;;
151;SDS011;68;48.792;9.164;2022-08-27T08:36:29;18.90;;;9.33;;
151;SDS011;68;48.792;9.164;2022-08-27T08:38:58;20.53;;;9.27;;
151;SDS011;68;48.792;9.164;2022-08-27T08:41:30;18.67;;;9.90;;
151;SDS011;68;48.792;9.164;2022-08-27T08:44:10;16.30;;;9.07;;
151;SDS011;68;48.792;9.164;2022-08-27T08:46:46;21.80;;;10.10;;
151;SDS011;68;48.792;9.164;2022-08-27T08:49:17;20.60;;;10.20;;
151;SDS011;68;48.792;9.164;2022-08-27T08:51:55;20.13;;;9.77;;
151;SDS011;68;48.792;9.164;2022-08-27T08:54:33;22.10;;;10.70;;
151;SDS011;68;48.792;9.164;2022-08-27T08:57:03;18.10;;;10.40;;
151;SDS011;68;48.792;9.164;2022-08-27T08:59:34;19.40;;;9.03;;
151;SDS011;68;48.792;9.164;2022-08-27T09:02:04;21.30;;;10.00;;
151;SDS011;68;48.792;9.164;2022-08-27T09:04:32;18.43;;;10.37;;
151;SDS011;68;48.792;9.164;2022-08-27T09:07:00;21.93;;;9.70;;
151;SDS011;68;48.792;9.164;2022-08-27T09:09:30;20.87;;;10.30;;
151;SDS011;68;48.792;9.164;2022-08-27T09:12:02;22.00;;;10.83;;
151;SDS011;68;48.792;9.164;2022-08-27T09:14:41;17.07;;;9.03;;
151;SDS011;68;48.792;9.164;2022-08-27T09:17:12;17.77;;;9.57;;
151;SDS011;68;48.792;9.164;2022-08-27T09:19:39;20.33;;;9.40;;
151;SDS011;68;48.792;9.164;2022-08-27T09:22:10;18.13;;;9.20;;
151;SDS011;68;48.792;9.164;2022-08-27T09:24:46;16.87;;;8.70;;
151;SDS011;68;48.792;9.164;2022-08-27T09:27:21;19.23;;;7.50;;
151;SDS011;68;48.792;9.164;2022-08-27T09:29:51;13.20;;;7.73;;
151;SDS011;68;48.792;9.164;2022-08-27T09:32:21;14.20;;;7.00;;
151;SDS011;68;48.792;9.164;2022-08-27T09:34:49;14.23;;;7.67;;
151;SDS011;68;48.792;9.164;2022-08-27T09:37:17;12.97;;;7.33;;
151;SDS011;68;48.792;9.164;2022-08-27T09:39:47;17.20;;;7.90;;
151;SDS011;68;48.792;9.164;2022-08-27T09:42:21;10.37;;;6.93;;
151;SDS011;68;48.792;9.164;2022-08-27T09:44:57;11.97;;;6.57;;
151;SDS011;68;48.792;9.164;2022-08-27T09:47:25;15.57;;;6.60;;
151;SDS011;68;48.792;9.164;2022-08-27T09:49:59;10.93;;;6.87;;
151;SDS011;68;48.792;9.164;2022-08-27T09:52:31;9.03;;;6.23;;
151;SDS011;68;48.792;9.164;2022-08-27T09:55:00;9.63;;;5.03;;
151;SDS011;68;48.792;9.164;2022-08-27T09:57:30;10.03;;;6.10;;
151;SDS011;68;48.792;9.164;2022-08-27T10:00:01;11.63;;;6.10;;
151;SDS011;68;48.792;9.164;2022-08-27T10:02:32;12.20;;;6.40;;
151;SDS011;68;48.792;9.164;2022-08-27T10:05:00;8.47;;;5.30;;
151;SDS011;68;48.792;9.164;2022-08-27T10:07:40;11.77;;;6.93;;
151;SDS011;68;48.792;9.164;2022-08-27T10:10:17;13.10;;;6.13;;
151;SDS011;68;48.792;9.164;2022-08-27T10:12:50;9.80;;;5.53;;
151;SDS011;68;48.792;9.164;2022-08-27T10:15:21;12.27;;;6.50;;
151;SDS011;68;48.792;9.164;2022-08-27T10:17:57;11.37;;;6.60;;
151;SDS011;68;48.792;9.164;2022-08-27T10:20:30;9.60;;;5.40;;
151;SDS011;68;48.792;9.164;2022-08-27T10:23:10;13.80;;;7.20;;
151;SDS011;68;48.792;9.164;2022-08-27T10:25:46;14.53;;;7.40;;
151;SDS011;68;48.792;9.164;2022-08-27T10:28:27;12.70;;;6.30;;
151;SDS011;68;48.792;9.164;2022-08-27T10:31:17;11.33;;;6.93;;
151;SDS011;68;48.792;9.164;2022-08-27T10:34:07;10.20;;;6.20;;
151;SDS011;68;48.792;9.164;2022-08-27T10:36:50;10.53;;;6.50;;
151;SDS011;68;48.792;9.164;2022-08-27T10:39:30;12.60;;;7.67;;
151;SDS011;68;48.792;9.164;2022-08-27T10:42:10;11.83;;;7.50;;
151;SDS011;68;48.792;9.164;2022-08-27T10:44:45;13.60;;;7.33;;
151;SDS011;68;48.792;9.164;2022-08-27T10:47:30;13.40;;;7.13;;
151;SDS011;68;48.792;9.164;2022-08-27T10:50:09;12.17;;;6.73;;
151;SDS011;68;48.792;9.164;2022-08-27T10:52:46;12.80;;;7.27;;
151;SDS011;68;48.792;9.164;2022-08-27T10:55:17;12.17;;;6.87;;
151;SDS011;68;48.792;9.164;2022-08-27T10:58:05;12.67;;;7.10;;
151;SDS011;68;48.792;9.164;2022-08-27T11:00:41;10.47;;;6.50;;
151;SDS011;68;48.792;9.164;2022-08-27T11:03:17;16.60;;;7.87;;
151;SDS011;68;48.792;9.164;2022-08-27T11:05:51;11.30;;;6.70;;
151;SDS011;68;48.792;9.164;2022-08-27T11:08:20;12.50;;;6.93;;
151;SDS011;68;48.792;9.164;2022-08-27T11:10:53;20.50;;;6.77;;
151;SDS011;68;48.792;9.164;2022-08-27T11:13:27;13.87;;;8.20;;
151;SDS011;68;48.792;9.164;2022-08-27T11:15:59;11.10;;;7.23;;
151;SDS011;68;48.792;9.164;2022-08-27T11:18:34;10.77;;;6.17;;
151;SDS011;68;48.792;9.164;2022-08-27T11:21:09;11.70;;;7.07;;
151;SDS011;68;48.792;9.164;2022-08-27T11:23:42;13.40;;;7.17;;
151;SDS011;68;48.792;9.164;2022-08-27T11:26:13;12.83;;;6.93;;
151;SDS011;68;48.792;9.164;2022-08-27T11:28:40;12.67;;;6.30;;
151;SDS011;68;48.792;9.164;2022-08-27T11:31:12;11.90;;;7.50;;
151;SDS011;68;48.792;9.164;2022-08-27T11:33:51;11.80;;;7.33;;
151;SDS011;68;48.792;9.164;2022-08-27T11:36:48;13.17;;;7.17;;
151;SDS011;68;48.792;9.164;2022-08-27T11:39:33;17.77;;;7.23;;
151;SDS011;68;48.792;9.164;2022-08-27T11:42:15;13.80;;;7.17;;
151;SDS011;68;48.792;9.164;2022-08-27T11:44:52;15.50;;;8.23;;
151;SDS011;68;48.792;9.164;2022-08-27T11:47:23;15.00;;;7.43;;
151;SDS011;68;48.792;9.164;2022-08-27T11:49:54;14.47;;;7.97;;
151;SDS011;68;48.792;9.164;2022-08-27T11:52:23;14.37;;;7.57;;
151;SDS011;68;48.792;9.164;2022-08-27T11:54:54;15.00;;;7.83;;
151;SDS011;68;48.792;9.164;2022-08-27T11:57:27;11.97;;;7.03;;
151;SDS011;68;48.792;9.164;2022-08-27T11:59:56;14.53;;;7.77;;
151;SDS011;68;48.792;9.164;2022-08-27T12:02:25;12.80;;;7.40;;
151;SDS011;68;48.792;9.164;2022-08-27T12:05:05;11.83;;;7.17;;
151;SDS011;68;48.792;9.164;2022-08-27T12:07:35;13.30;;;7.20;;
151;SDS011;68;48.792;9.164;2022-08-27T12:10:11;15.80;;;8.13;;
151;SDS011;68;48.792;9.164;2022-08-27T12:12:52;16.30;;;8.80;;
151;SDS011;68;48.792;9.164;2022-08-27T12:15:26;11.13;;;7.23;;
151;SDS011;68;48.792;9.164;2022-08-27T12:18:05;17.20;;;8.27;;
151;SDS011;68;48.792;9.164;2022-08-27T12:20:42;13.30;;;6.90;;
151;SDS011;68;48.792;9.164;2022-08-27T12:23:18;13.33;;;7.70;;
151;SDS011;68;48.792;9.164;2022-08-27T12:26:20;15.93;;;8.30;;
151;SDS011;68;48.792;9.164;2022-08-27T12:31:48;14.93;;;8.10;;
151;SDS011;68;48.792;9.164;2022-08-27T12:34:19;15.83;;;8.43;;
151;SDS011;68;48.792;9.164;2022-08-27T12:36:51;14.37;;;7.87;;
151;SDS011;68;48.792;9.164;2022-08-27T12:39:20;14.97;;;8.10;;
151;SDS011;68;48.792;9.164;2022-08-27T12:41:52;19.07;;;9.10;;
151;SDS011;68;48.792;9.164;2022-08-27T12:44:22;13.83;;;7.67;;
151;SDS011;68;48.792;9.164;2022-08-27T12:46:51;15.73;;;8.37;;
151;SDS011;68;48.792;9.164;2022-08-27T12:49:23;15.63;;;8.90;;
151;SDS011;68;48.792;9.164;2022-08-27T12:51:54;15.50;;;9.00;;
151;SDS011;68;48.792;9.164;2022-08-27T12:54:26;15.97;;;8.77;;
151;SDS011;68;48.792;9.164;2022-08-27T12:57:05;15.10;;;8.43;;
151;SDS011;68;48.792;9.164;2022-08-27T12:59:45;14.53;;;8.07;;
151;SDS011;68;48.792;9.164;2022-08-27T13:02:34;14.87;;;8.07;;
151;SDS011;68;48.792;9.164;2022-08-27T13:05:19;13.00;;;7.83;;
151;SDS011;68;48.792;9.164;2022-08-27T13:07:49;14.70;;;7.80;;
151;SDS011;68;48.792;9.164;2022-08-27T13:10:17;18.80;;;9.40;;
151;SDS011;68;48.792;9.164;2022-08-27T13:12:47;17.73;;;8.00;;
151;SDS011;68;48.792;9.164;2022-08-27T13:15:24;17.07;;;8.90;;
151;SDS011;68;48.792;9.164;2022-08-27T13:17:51;15.20;;;8.67;;
151;SDS011;68;48.792;9.164;2022-08-27T13:20:20;15.67;;;7.73;;
151;SDS011;68;48.792;9.164;2022-08-27T13:22:51;15.57;;;8.33;;
151;SDS011;68;48.792;9.164;2022-08-27T13:25:20;15.10;;;8.47;;
151;SDS011;68;48.792;9.164;2022-08-27T13:27:50;14.57;;;7.67;;
151;SDS011;68;48.792;9.164;2022-08-27T13:30:19;17.60;;;9.83;;
151;SDS011;68;48.792;9.164;2022-08-27T13:32:47;16.40;;;8.57;;
151;SDS011;68;48.792;9.164;2022-08-27T13:35:16;15.47;;;8.23;;
151;SDS011;68;48.792;9.164;2022-08-27T13:37:46;17.87;;;8.50;;
151;SDS011;68;48.792;9.164;2022-08-27T13:40:24;15.57;;;8.27;;
151;SDS011;68;48.792;9.164;2022-08-27T13:42:55;18.87;;;9.33;;
151;SDS011;68;48.792;9.164;2022-08-27T13:45:22;35.67;;;8.53;;
151;SDS011;68;48.792;9.164;2022-08-27T13:47:51;17.93;;;9.40;;
151;SDS011;68;48.792;9.164;2022-08-27T13:50:20;15.07;;;8.43;;
151;SDS011;68;48.792;9.164;2022-08-27T13:52:49;15.40;;;8.63;;
151;SDS011;68;48.792;9.164;2022-08-27T13:55:38;16.67;;;8.70;;
151;SDS011;68;48.792;9.164;2022-08-27T13:58:12;17.70;;;9.40;;
151;SDS011;68;48.792;9.164;2022-08-27T14:00:43;16.03;;;8.17;;
151;SDS011;68;48.792;9.164;2022-08-27T14:06:05;22.50;;;9.20;;
151;SDS011;68;48.792;9.164;2022-08-27T14:08:33;16.00;;;8.97;;
151;SDS011;68;48.792;9.164;2022-08-27T14:11:06;12.20;;;7.57;;
151;SDS011;68;48.792;9.164;2022-08-27T14:13:37;14.53;;;8.23;;
151;SDS011;68;48.792;9.164;2022-08-27T14:16:13;13.87;;;8.13;;
151;SDS011;68;48.792;9.164;2022-08-27T14:18:49;12.77;;;7.30;;
151;SDS011;68;48.792;9.164;2022-08-27T14:21:33;13.07;;;7.13;;
151;SDS011;68;48.792;9.164;2022-08-27T14:24:14;14.87;;;8.40;;
151;SDS011;68;48.792;9.164;2022-08-27T14:26:49;17.37;;;8.67;;
151;SDS011;68;48.792;9.164;2022-08-27T14:29:16;16.70;;;8.73;;
151;SDS011;68;48.792;9.164;2022-08-27T14:31:51;16.30;;;7.33;;
151;SDS011;68;48.792;9.164;2022-08-27T14:34:21;12.70;;;7.73;;
151;SDS011;68;48.792;9.164;2022-08-27T14:37:03;11.23;;;6.60;;
151;SDS011;68;48.792;9.164;2022-08-27T14:39:33;17.20;;;9.40;;
151;SDS011;68;48.792;9.164;2022-08-27T14:42:07;13.70;;;7.50;;
151;SDS011;68;48.792;9.164;2022-08-27T14:44:45;11.70;;;7.10;;
151;SDS011;68;48.792;9.164;2022-08-27T14:47:20;11.40;;;7.20;;
151;SDS011;68;48.792;9.164;2022-08-27T14:50:08;12.00;;;7.30;;
151;SDS011;68;48.792;9.164;2022-08-27T14:52:48;12.00;;;7.70;;
151;SDS011;68;48.792;9.164;2022-08-27T14:55:28;17.53;;;8.40;;
151;SDS011;68;48.792;9.164;2022-08-27T14:58:09;17.07;;;8.80;;
151;SDS011;68;48.792;9.164;2022-08-27T15:06:13;12.60;;;7.53;;
151;SDS011;68;48.792;9.164;2022-08-27T15:07:29;16.90;;;8.43;;
151;SDS011;68;48.792;9.164;2022-08-27T15:10:41;10.20;;;6.20;;
151;SDS011;68;48.792;9.164;2022-08-27T15:14:03;12.53;;;7.33;;
151;SDS011;68;48.792;9.164;2022-08-27T15:20:45;15.00;;;7.37;;
151;SDS011;68;48.792;9.164;2022-08-27T15:27:06;15.70;;;7.93;;
151;SDS011;68;48.792;9.164;2022-08-27T15:30:31;12.20;;;7.07;;
151;SDS011;68;48.792;9.164;2022-08-27T15:33:31;15.70;;;8.30;;
151;SDS011;68;48.792;9.164;2022-08-27T15:36:27;12.83;;;7.00;;
151;SDS011;68;48.792;9.164;2022-08-27T15:42:45;17.10;;;8.23;;
151;SDS011;68;48.792;9.164;2022-08-27T15:55:34;13.90;;;8.07;;
151;SDS011;68;48.792;9.164;2022-08-27T16:05:09;17.30;;;7.40;;
151;SDS011;68;48.792;9.164;2022-08-27T16:07:37;11.03;;;7.20;;
151;SDS011;68;48.792;9.164;2022-08-27T16:10:05;12.93;;;7.83;;
151;SDS011;68;48.792;9.164;2022-08-27T16:15:55;12.70;;;7.20;;
151;SDS011;68;48.792;9.164;2022-08-27T16:18:23;14.00;;;8.30;;
151;SDS011;68;48.792;9.164;2022-08-27T16:20:52;12.80;;;7.13;;
151;SDS011;68;48.792;9.164;2022-08-27T16:23:22;18.37;;;8.67;;
151;SDS011;68;48.792;9.164;2022-08-27T16:25:50;13.07;;;8.00;;
151;SDS011;68;48.792;9.164;2022-08-27T16:28:17;12.70;;;7.30;;
151;SDS011;68;48.792;9.164;2022-08-27T16:30:44;12.20;;;7.40;;
151;SDS011;68;48.792;9.164;2022-08-27T16:33:11;11.90;;;6.70;;
151;SDS011;68;48.792;9.164;2022-08-27T16:35:38;10.50;;;6.90;;
151;SDS011;68;48.792;9.164;2022-08-27T16:38:06;15.33;;;7.27;;
151;SDS011;68;48.792;9.164;2022-08-27T16:40:37;11.93;;;7.47;;
151;SDS011;68;48.792;9.164;2022-08-27T16:43:05;17.00;;;8.43;;
151;SDS011;68;48.792;9.164;2022-08-27T16:45:32;18.13;;;8.70;;
151;SDS011;68;48.792;9.164;2022-08-27T16:47:59;15.60;;;8.87;;
151;SDS011;68;48.792;9.164;2022-08-27T16:50:43;14.60;;;8.87;;
151;SDS011;68;48.792;9.164;2022-08-27T16:53:12;19.73;;;9.33;;